Time;durP1;ratioP1;P1;durP2;ratioP2;P2;SDS_P1;SDS_P2;PMS_P1;PMS_P2;Temp;Humidity;BMP_temperature;BMP_pressure;BME280_temperature;BME280_humidity;BME280_pressure;Samples;Min_cycle;Max_cycle;Signal;HPM_P1;HPM_P2
2023/10/08 00:22:13;;;;;;;;;;;13.50;68.80;;;12.56;62.04;96354.69;6156749;23;19920;-86
2023/10/08 08:28:38;;;;;;;;;;;14.60;67.20;;;13.73;61.17;95973.84;5955920;24;19922;-86
2023/10/08 08:40:17;;;;;;;;;;;14.60;67.40;;;13.67;61.74;95966.78;5904126;24;19926;-87
2023/10/08 08:48:22;;;;;;;;;;;14.50;67.70;;;13.68;61.58;95976.66;6021222;23;19914;-87
2023/10/08 09:03:37;;;;;;;;;;;14.70;67.90;;;13.93;61.29;95982.91;6023572;23;19921;-86
2023/10/08 10:16:22;;;;;;;;;;;15.20;66.80;;;14.32;60.94;95951.47;6051252;23;19925;-87
2023/10/08 10:23:56;;;;;;;;;;;15.10;67.00;;;14.26;61.17;95958.22;6036738;23;19922;-87
2023/10/08 10:30:20;;;;;;;;;;;15.10;67.30;;;14.19;61.39;95969.59;6163148;23;19935;-87
2023/10/08 10:36:37;;;;;;;;;;;15.00;67.50;;;14.13;61.48;95951.53;6081959;23;19952;-87
2023/10/08 10:40:03;;;;;;;;;;;15.00;67.60;;;14.10;61.75;95954.88;6081370;23;19928;-87
2023/10/08 10:42:47;;;;;;;;;;;15.00;67.80;;;14.08;61.82;95952.41;6112381;23;20255;-87
2023/10/08 10:45:47;;;;;;;;;;;14.90;68.00;;;14.07;61.96;95941.72;6088521;23;19920;-87
2023/10/08 10:48:42;;;;;;;;;;;14.90;68.00;;;14.06;61.98;95946.41;6136284;23;19920;-87
2023/10/08 10:51:23;;;;;;;;;;;14.90;68.10;;;14.02;62.00;95934.34;6090559;23;20367;-87
2023/10/08 10:54:07;;;;;;;;;;;14.90;68.20;;;14.02;62.20;95950.03;6112961;23;19927;-87
2023/10/08 10:56:47;;;;;;;;;;;14.90;68.20;;;14.00;62.27;95939.34;6113417;23;19944;-87
2023/10/08 10:59:36;;;;;;;;;;;14.90;68.40;;;13.99;62.26;95936.88;6113513;23;19921;-87
2023/10/08 11:02:07;;;;;;;;;;;14.90;68.40;;;13.96;62.14;95932.78;6147830;23;19921;-87
2023/10/08 11:07:44;;;;;;;;;;;14.80;68.50;;;13.92;62.44;95931.75;6108256;23;19920;-87
2023/10/08 11:10:15;;;;;;;;;;;14.80;68.60;;;13.94;62.47;95943.28;6123492;23;19920;-87
2023/10/08 11:12:54;;;;;;;;;;;14.80;68.60;;;13.93;62.40;95939.72;6113587;23;20252;-87
2023/10/08 11:15:37;;;;;;;;;;;14.80;68.60;;;13.91;62.60;95938.38;6113444;23;19928;-87
2023/10/08 11:18:10;;;;;;;;;;;14.80;68.70;;;13.88;62.45;95937.03;6136361;23;19920;-87
2023/10/08 11:20:40;;;;;;;;;;;14.80;68.80;;;13.90;62.59;95933.97;6136832;23;19921;-87
2023/10/08 11:23:19;;;;;;;;;;;14.80;68.80;;;13.87;62.63;95935.41;6136165;23;20092;-87
2023/10/08 11:25:54;;;;;;;;;;;14.80;68.80;;;13.86;62.61;95939.28;6138143;23;19927;-87
2023/10/08 11:28:27;;;;;;;;;;;14.70;68.90;;;13.89;62.85;95948.84;6112984;23;19928;-87
2023/10/08 11:30:59;;;;;;;;;;;14.70;68.90;;;13.87;62.79;95945.59;6136867;23;19920;-87
2023/10/08 11:33:31;;;;;;;;;;;14.70;69.00;;;13.84;62.74;95946.19;6147919;23;19920;-87
2023/10/08 11:36:02;;;;;;;;;;;14.70;69.00;;;13.83;62.79;95945.34;6109942;23;19921;-87
2023/10/08 11:38:39;;;;;;;;;;;14.70;69.10;;;13.83;62.88;95941.81;6112823;23;19921;-87
2023/10/08 11:41:27;;;;;;;;;;;14.70;69.20;;;13.83;62.89;95941.81;6090263;23;19928;-87
2023/10/08 11:43:59;;;;;;;;;;;14.70;69.10;;;13.83;62.84;95944.56;6112892;23;19920;-87
2023/10/08 11:46:32;;;;;;;;;;;14.70;69.20;;;13.81;62.76;95945.66;6139086;23;19920;-87
2023/10/08 11:49:05;;;;;;;;;;;14.70;69.30;;;13.81;63.12;95942.91;6136725;23;19936;-87
2023/10/08 11:51:36;;;;;;;;;;;14.70;69.50;;;13.81;63.14;95945.66;6113114;23;20256;-87
2023/10/08 11:54:05;;;;;;;;;;;14.70;69.30;;;13.83;63.03;95944.56;6113016;23;19928;-87
2023/10/08 11:56:36;;;;;;;;;;;14.70;69.30;;;13.81;62.82;95937.41;6089146;23;19927;-87
2023/10/08 11:59:08;;;;;;;;;;;14.70;69.40;;;13.82;63.04;95935.47;6137111;23;19921;-87
2023/10/08 12:01:42;;;;;;;;;;;14.70;69.40;;;13.80;63.03;95935.78;6112551;23;19921;-87
2023/10/08 12:04:16;;;;;;;;;;;14.70;69.40;;;13.81;63.09;95929.16;6088644;23;19931;-87
2023/10/08 12:06:46;;;;;;;;;;;14.70;69.40;;;13.83;63.08;95939.06;6137022;23;19921;-87
2023/10/08 12:09:15;;;;;;;;;;;14.70;69.40;;;13.80;63.05;95941.28;6112913;23;19945;-87
2023/10/08 12:11:43;;;;;;;;;;;14.70;69.40;;;13.83;63.18;95939.06;6113130;23;20328;-87
2023/10/08 12:14:15;;;;;;;;;;;14.70;69.40;;;13.83;63.12;95941.81;6137510;23;19928;-87
2023/10/08 12:16:46;;;;;;;;;;;14.70;69.50;;;13.79;63.11;95947.91;6112179;23;19927;-87
2023/10/08 12:19:16;;;;;;;;;;;14.70;69.50;;;13.81;63.19;95959.44;6089131;23;19943;-87
2023/10/08 12:21:46;;;;;;;;;;;14.70;69.50;;;13.83;62.92;95950.88;6113025;23;20332;-87
2023/10/08 12:24:14;;;;;;;;;;;14.70;69.50;;;13.78;63.32;95943.50;6137546;23;19921;-87
2023/10/08 12:26:45;;;;;;;;;;;14.70;69.60;;;13.80;63.17;95945.97;6112933;23;19921;-87
2023/10/08 12:29:18;;;;;;;;;;;14.70;69.60;;;13.78;63.35;95949.00;6113134;23;19928;-87
2023/10/08 12:31:47;;;;;;;;;;;14.70;69.70;;;13.79;63.48;95947.91;6137301;23;19920;-87
2023/10/08 12:34:17;;;;;;;;;;;14.70;69.80;;;13.79;63.43;95950.66;6088837;23;20352;-87
2023/10/08 12:36:47;;;;;;;;;;;14.60;69.60;;;13.80;63.49;95963.28;6137366;23;19944;-87
2023/10/08 12:39:18;;;;;;;;;;;14.60;69.70;;;13.78;63.46;95965.50;6136859;23;20256;-87
2023/10/08 12:41:46;;;;;;;;;;;14.60;69.70;;;13.77;63.43;95952.06;6112728;23;19928;-87
2023/10/08 12:44:15;;;;;;;;;;;14.60;69.70;;;13.78;63.42;95970.22;6088302;23;19928;-87
2023/10/08 12:46:44;;;;;;;;;;;14.60;69.80;;;13.80;63.62;95984.50;6112399;23;19943;-87
2023/10/08 12:49:14;;;;;;;;;;;14.60;70.00;;;13.76;63.59;95981.50;6089122;23;19943;-87
2023/10/08 12:51:45;;;;;;;;;;;14.60;69.80;;;13.77;63.50;95988.63;6088544;23;19920;-87
2023/10/08 12:54:21;;;;;;;;;;;14.60;69.80;;;13.75;63.51;95993.63;6112675;23;19940;-87
2023/10/08 12:56:49;;;;;;;;;;;14.60;69.90;;;13.78;63.61;95983.97;6112527;23;19921;-87
2023/10/08 12:59:21;;;;;;;;;;;14.60;69.90;;;13.75;63.56;95982.59;6088912;23;19921;-87
2023/10/08 13:01:53;;;;;;;;;;;14.60;69.90;;;13.74;63.69;95986.50;6088326;23;20275;-87
2023/10/08 13:04:26;;;;;;;;;;;14.60;70.00;;;13.76;63.47;96000.75;6137299;23;19925;-87
2023/10/08 13:06:57;;;;;;;;;;;14.60;70.00;;;13.74;63.69;95991.16;6136370;23;19920;-87
2023/10/08 13:09:26;;;;;;;;;;;14.60;70.00;;;13.73;63.71;95984.88;6088647;23;19921;-87
2023/10/08 13:11:54;;;;;;;;;;;14.60;70.10;;;13.75;63.62;95974.34;6088423;23;19921;-87
2023/10/08 13:14:22;;;;;;;;;;;14.60;70.00;;;13.76;63.77;95967.75;6136048;23;19931;-86
2023/10/08 13:16:54;;;;;;;;;;;14.60;70.10;;;13.74;63.78;95977.41;6112304;23;19920;-87
2023/10/08 13:19:23;;;;;;;;;;;14.60;70.10;;;13.74;63.63;95986.50;6136185;23;19932;-87
2023/10/08 13:21:52;;;;;;;;;;;14.60;70.10;;;13.74;63.82;95981.00;6112884;23;20033;-87
2023/10/08 13:24:22;;;;;;;;;;;14.60;70.10;;;13.73;63.81;95979.34;6112573;23;20340;-87
2023/10/08 13:26:51;;;;;;;;;;;14.60;70.00;;;13.75;63.80;95993.63;6111251;23;20256;-87
2023/10/08 13:29:19;;;;;;;;;;;14.60;70.10;;;13.75;63.61;95999.13;6112386;23;19920;-87
2023/10/08 13:31:49;;;;;;;;;;;14.60;70.10;;;13.75;63.68;95993.63;6112921;23;19928;-87
2023/10/08 13:34:19;;;;;;;;;;;14.60;70.20;;;13.72;63.92;95988.72;6088467;23;19920;-86
2023/10/08 13:36:50;;;;;;;;;;;14.60;70.10;;;13.73;63.90;95995.88;6112031;23;19974;-87
2023/10/08 13:39:22;;;;;;;;;;;14.60;70.20;;;13.73;63.80;95995.03;6112534;23;19921;-87
2023/10/08 13:41:56;;;;;;;;;;;14.60;70.20;;;13.74;63.90;96005.75;6088272;23;19921;-86
2023/10/08 13:44:35;;;;;;;;;;;14.60;70.30;;;13.74;63.97;96000.25;6112775;23;19920;-86
2023/10/08 13:47:06;;;;;;;;;;;14.60;70.30;;;13.74;63.89;96003.00;6088940;23;19921;-87
2023/10/08 13:49:36;;;;;;;;;;;14.60;70.30;;;13.75;63.90;96001.06;6111964;23;19921;-87
2023/10/08 13:52:07;;;;;;;;;;;14.60;70.20;;;13.74;63.89;96013.19;6088264;23;19920;-87
2023/10/08 13:54:46;;;;;;;;;;;14.60;70.30;;;13.74;63.90;96005.75;6137316;23;19921;-87
2023/10/08 13:57:15;;;;;;;;;;;14.60;70.30;;;13.73;63.86;96012.38;6112521;23;20351;-87
2023/10/08 13:59:43;;;;;;;;;;;14.60;70.30;;;13.73;63.89;96017.88;6088609;23;19931;-87
2023/10/08 14:02:15;;;;;;;;;;;14.60;70.30;;;13.74;63.86;96047.03;6112849;23;19921;-87
2023/10/08 14:04:44;;;;;;;;;;;14.60;70.30;;;13.73;63.85;96045.38;6112564;23;19931;-87
2023/10/08 14:07:16;;;;;;;;;;;14.60;70.30;;;13.72;63.93;96043.75;6137176;23;19927;-87
2023/10/08 14:09:46;;;;;;;;;;;14.60;70.40;;;13.74;64.13;96066.28;6112826;23;19927;-86
2023/10/08 14:12:14;;;;;;;;;;;14.60;70.60;;;13.72;64.20;96076.75;6112199;23;19944;-87
2023/10/08 14:14:46;;;;;;;;;;;14.60;70.60;;;13.74;64.10;96085.53;6112381;23;19921;-87
2023/10/08 14:17:15;;;;;;;;;;;14.60;70.60;;;13.74;64.32;96091.03;6134034;23;19928;-87
2023/10/08 14:20:12;;;;;;;;;;;14.60;70.80;;;13.76;65.43;96094.28;6101934;23;19921;-87
2023/10/08 14:23:03;;;;;;;;;;;14.60;71.70;;;13.71;65.16;96091.63;6108679;23;19925;-87
2023/10/08 14:31:02;;;;;;;;;;;14.60;70.80;;;13.73;65.45;96121.59;6049306;23;19925;-87
